Time;durP1;ratioP1;P1;durP2;ratioP2;P2;SDS_P1;SDS_P2;PMS_P1;PMS_P2;Temp;Humidity;BMP_temperature;BMP_pressure;BME280_temperature;BME280_humidity;BME280_pressure;Samples;Min_cycle;Max_cycle;Signal;HPM_P1;HPM_P2
2022/01/21 00:01:19;;;;;;;4.63;1.27;;;;;;;-149.78;100.00;50502.75;5066517;28;20042;-64
2022/01/21 00:03:44;;;;;;;8.65;1.48;;;;;;;-149.78;100.00;50539.91;5067678;28;20028;-65
2022/01/21 00:06:10;;;;;;;4.40;1.73;;;;;;;-149.78;100.00;50510.56;5067536;28;20501;-65
2022/01/21 00:08:37;;;;;;;16.50;3.83;;;;;;;-149.78;100.00;50483.19;5067301;28;20115;-65
2022/01/21 00:11:04;;;;;;;10.18;1.63;;;;;;;-149.78;100.00;50492.97;5067117;28;20032;-65
2022/01/21 00:13:37;;;;;;;6.72;1.40;;;;;;;-149.78;100.00;50498.81;5066942;28;20920;-66
2022/01/21 00:16:05;;;;;;;9.23;1.73;;;;;;;-149.78;100.00;50512.50;5066161;28;20041;-66
2022/01/21 00:18:33;;;;;;;4.82;1.35;;;;;;;-149.78;100.00;50502.75;5066273;28;20403;-66
2022/01/21 00:31:57;;;;;;;8.07;1.40;;;;;;;-149.78;100.00;50504.69;5066432;28;20029;-66
2022/01/21 00:34:22;;;;;;;6.43;1.35;;;;;;;-149.78;100.00;50498.81;5048728;28;20565;-66
2022/01/21 00:36:48;;;;;;;8.38;1.10;;;;;;;-149.78;100.00;50487.09;5066240;28;20055;-66
2022/01/21 00:39:14;;;;;;;3.33;1.17;;;;;;;-149.78;100.00;50514.47;5066546;28;20039;-66
2022/01/21 00:41:52;;;;;;;7.82;1.00;;;;;;;-149.78;100.00;50520.34;5066260;28;20068;-66
2022/01/21 00:44:17;;;;;;;8.38;1.33;;;;;;;-149.78;100.00;50518.38;5066258;28;20044;-66
2022/01/21 00:46:43;;;;;;;6.75;1.40;;;;;;;-149.78;100.00;50491.00;5066064;28;20028;-66
2022/01/21 00:49:09;;;;;;;5.13;1.80;;;;;;;-149.78;100.00;50494.91;5065645;28;20125;-66
2022/01/21 00:51:34;;;;;;;8.48;1.70;;;;;;;-149.78;100.00;50494.91;5066624;28;20036;-66
2022/01/21 00:54:00;;;;;;;6.72;1.67;;;;;;;-149.78;100.00;50496.88;5047597;28;20044;-65
2022/01/21 00:56:26;;;;;;;7.97;1.80;;;;;;;-149.78;100.00;50526.22;5065559;28;20047;-66
2022/01/21 00:58:51;;;;;;;5.60;1.85;;;;;;;-149.78;100.00;50492.97;5047800;28;20028;-66
2022/01/21 01:01:17;;;;;;;6.55;1.83;;;;;;;-149.78;100.00;50496.88;5065497;28;20093;-66
2022/01/21 01:03:43;;;;;;;8.88;1.73;;;;;;;-149.78;100.00;50530.13;5065035;28;20122;-66
2022/01/21 01:06:09;;;;;;;4.32;1.77;;;;;;;-149.78;100.00;50500.78;5065628;28;20040;-66
2022/01/21 01:08:39;;;;;;;6.75;1.63;;;;;;;-149.78;100.00;50506.66;5065397;28;20051;-66
2022/01/21 01:21:31;;;;;;;4.85;1.90;;;;;;;-149.78;100.00;50508.59;5048066;28;20044;-65
2022/01/21 01:29:22;;;;;;;11.35;1.73;;;;;;;-149.78;100.00;50522.28;5065588;28;20029;-66
2022/01/21 01:31:48;;;;;;;5.30;1.92;;;;;;;-149.78;100.00;50504.69;5066005;28;20032;-66
2022/01/21 01:34:15;;;;;;;6.55;1.88;;;;;;;-149.78;100.00;50506.66;5064755;28;20095;-66
2022/01/21 01:36:43;;;;;;;4.38;1.88;;;;;;;-149.78;100.00;50483.19;5064514;28;20047;-66
2022/01/21 01:39:32;;;;;;;5.22;1.55;;;;;;;-149.78;100.00;50506.66;5064710;28;20024;-66
2022/01/21 01:42:25;;;;;;;4.95;1.80;;;;;;;-149.78;100.00;50481.22;5064044;28;20127;-66
2022/01/21 01:50:37;;;;;;;8.52;2.03;;;;;;;-149.78;100.00;50498.81;5065830;28;20036;-66
2022/01/21 01:53:04;;;;;;;9.38;2.10;;;;;;;-149.78;100.00;50487.09;5047758;28;20390;-66
2022/01/21 01:55:31;;;;;;;4.53;1.92;;;;;;;-149.78;100.00;50506.66;5064310;28;20033;-66
2022/01/21 01:57:57;;;;;;;8.50;2.40;;;;;;;-149.78;100.00;50514.47;5064171;28;20528;-66
2022/01/21 02:00:23;;;;;;;9.50;2.30;;;;;;;-149.78;100.00;50512.50;5064298;28;20032;-66
2022/01/21 02:02:49;;;;;;;7.07;2.70;;;;;;;-149.78;100.00;50483.19;5064556;28;20032;-66
2022/01/21 02:05:14;;;;;;;9.98;2.65;;;;;;;-149.78;100.00;50522.28;5064352;28;20071;-66
2022/01/21 02:07:40;;;;;;;8.98;2.55;;;;;;;-149.78;100.00;50487.09;5065197;28;20056;-66
2022/01/21 02:10:05;;;;;;;9.52;2.70;;;;;;;-149.78;100.00;50534.03;5062594;28;20097;-66
2022/01/21 02:12:31;;;;;;;10.82;2.60;;;;;;;-149.78;100.00;50494.91;5047013;28;20037;-64
2022/01/21 02:15:00;;;;;;;14.02;2.50;;;;;;;-149.78;100.00;50516.44;5064835;28;20036;-64
2022/01/21 02:22:43;;;;;;;10.05;2.35;;;;;;;-149.78;100.00;50500.78;5065149;28;20476;-64
2022/01/21 02:25:19;;;;;;;10.02;2.90;;;;;;;-149.78;100.00;50520.34;5065080;28;20115;-64
2022/01/21 02:27:56;;;;;;;15.20;2.75;;;;;;;-149.78;100.00;50500.78;5047965;28;20047;-64
2022/01/21 02:30:23;;;;;;;9.30;3.03;;;;;;;-149.78;100.00;50537.94;5065085;28;20518;-64
2022/01/21 02:32:52;;;;;;;11.43;2.78;;;;;;;-149.78;100.00;50494.91;5060960;28;20032;-64
2022/01/21 02:35:20;;;;;;;6.47;2.47;;;;;;;-149.78;100.00;50502.75;5065361;28;20448;-64
2022/01/21 02:37:47;;;;;;;8.80;2.70;;;;;;;-149.78;100.00;50487.09;5065458;28;20029;-64
2022/01/21 02:40:14;;;;;;;10.35;2.38;;;;;;;-149.78;100.00;50487.09;5069091;28;20476;-64
2022/01/21 02:42:41;;;;;;;9.27;2.85;;;;;;;-149.78;100.00;50451.88;5068869;28;20067;-64
2022/01/21 02:45:10;;;;;;;7.72;2.63;;;;;;;-149.78;100.00;50481.22;5068704;28;20028;-64
2022/01/21 02:47:36;;;;;;;11.07;2.42;;;;;;;-149.78;100.00;50500.78;5068663;28;20033;-64
2022/01/21 02:50:03;;;;;;;6.65;2.60;;;;;;;-149.78;100.00;50455.81;5066033;28;20051;-64
2022/01/21 02:52:31;;;;;;;11.07;2.42;;;;;;;-149.78;100.00;50498.81;5068457;28;20119;-64
2022/01/21 02:54:56;;;;;;;6.65;2.10;;;;;;;-149.78;100.00;50541.84;5068521;28;20029;-64
2022/01/21 02:57:22;;;;;;;6.72;2.60;;;;;;;-149.78;100.00;50487.09;5068436;28;20715;-65
2022/01/21 02:59:49;;;;;;;17.67;3.08;;;;;;;-149.78;100.00;50471.44;5068093;28;20832;-64
2022/01/21 03:02:15;;;;;;;12.80;2.88;;;;;;;-149.78;100.00;50520.34;5068345;28;20051;-64
2022/01/21 03:05:02;;;;;;;8.38;2.08;;;;;;;-149.78;100.00;50475.34;5050144;28;20036;-64
2022/01/21 03:07:28;;;;;;;12.07;1.95;;;;;;;-149.78;100.00;50498.81;5048002;28;20117;-63
2022/01/21 03:09:54;;;;;;;12.02;2.50;;;;;;;-149.78;100.00;50494.91;5065712;28;20162;-63
2022/01/21 03:12:21;;;;;;;9.18;2.42;;;;;;;-149.78;100.00;50475.34;5067355;28;20504;-63
2022/01/21 03:14:47;;;;;;;13.20;2.35;;;;;;;-149.78;100.00;50508.59;5064390;28;20415;-63
2022/01/21 03:17:13;;;;;;;11.20;2.33;;;;;;;-149.78;100.00;50451.88;5067268;28;20055;-63
2022/01/21 03:19:39;;;;;;;6.20;1.92;;;;;;;-149.78;100.00;50494.91;5066828;28;20037;-64
2022/01/21 03:22:05;;;;;;;6.78;2.20;;;;;;;-149.78;100.00;50471.44;5049094;28;20044;-63
2022/01/21 03:24:31;;;;;;;14.00;2.55;;;;;;;-149.78;100.00;50479.28;5067164;28;20036;-64
2022/01/21 03:26:57;;;;;;;7.72;2.28;;;;;;;-149.78;100.00;50492.97;5066442;28;20066;-63
2022/01/21 03:29:23;;;;;;;14.32;2.78;;;;;;;-149.78;100.00;50483.19;5067566;28;20487;-63
2022/01/21 03:31:49;;;;;;;12.02;2.40;;;;;;;-149.78;100.00;50494.91;5067990;28;20044;-63
2022/01/21 03:34:15;;;;;;;4.47;2.05;;;;;;;-149.78;100.00;50471.44;5066481;28;20453;-65
2022/01/21 03:36:41;;;;;;;8.60;2.38;;;;;;;-149.78;100.00;50467.53;5047650;28;20531;-65
2022/01/21 03:39:07;;;;;;;6.47;2.55;;;;;;;-149.78;100.00;50463.63;5066199;28;20094;-65
2022/01/21 03:41:32;;;;;;;11.43;2.70;;;;;;;-149.78;100.00;50483.19;5064053;28;20033;-65
2022/01/21 03:43:58;;;;;;;11.02;3.17;;;;;;;-149.78;100.00;50487.09;5067522;28;20425;-64
2022/01/21 03:46:24;;;;;;;13.85;3.03;;;;;;;-149.78;100.00;50526.22;5068946;28;20467;-65
2022/01/21 03:48:50;;;;;;;10.75;2.50;;;;;;;-149.78;100.00;50459.72;5048422;28;20036;-65
2022/01/21 03:51:19;;;;;;;9.75;2.10;;;;;;;-149.78;100.00;50483.19;5050193;28;20032;-65
2022/01/21 03:53:46;;;;;;;9.65;2.30;;;;;;;-149.78;100.00;50496.88;5066728;28;20028;-65
2022/01/21 03:56:15;;;;;;;5.22;2.00;;;;;;;-149.78;100.00;50483.19;5068360;28;20037;-65
2022/01/21 03:58:41;;;;;;;8.85;1.95;;;;;;;-149.78;100.00;50453.84;5066112;28;20037;-65
2022/01/21 04:01:08;;;;;;;9.75;2.85;;;;;;;-149.78;100.00;50481.22;5050568;28;20973;-65
2022/01/21 04:03:33;;;;;;;9.20;2.55;;;;;;;-149.78;100.00;50475.34;5067217;28;20040;-65
2022/01/21 04:05:59;;;;;;;5.00;2.00;;;;;;;-149.78;100.00;50436.25;5067808;28;20029;-65
2022/01/21 04:08:25;;;;;;;5.38;1.67;;;;;;;-149.78;100.00;50496.88;5067853;28;20049;-65
2022/01/21 04:10:50;;;;;;;7.97;2.20;;;;;;;-149.78;100.00;50459.72;5049104;28;20037;-65
2022/01/21 04:13:19;;;;;;;8.55;2.00;;;;;;;-149.78;100.00;50494.91;5066349;28;20044;-65
2022/01/21 04:15:48;;;;;;;6.78;1.60;;;;;;;-149.78;100.00;50455.81;5067781;28;20029;-65
2022/01/21 04:18:14;;;;;;;16.13;2.20;;;;;;;-149.78;100.00;50498.81;5066273;28;20036;-65
2022/01/21 04:20:42;;;;;;;10.43;2.25;;;;;;;-149.78;100.00;50463.63;5067027;28;20399;-65
2022/01/21 04:23:10;;;;;;;6.47;2.45;;;;;;;-149.78;100.00;50496.88;5066380;28;20036;-64
2022/01/21 04:25:37;;;;;;;8.93;2.00;;;;;;;-149.78;100.00;50428.41;5067495;28;20032;-64
2022/01/21 04:28:02;;;;;;;10.48;2.85;;;;;;;-149.78;100.00;50514.47;5065747;28;20063;-65
2022/01/21 04:30:28;;;;;;;10.23;2.05;;;;;;;-149.78;100.00;50447.97;5067850;28;20476;-65
2022/01/21 04:32:54;;;;;;;13.60;2.72;;;;;;;-149.78;100.00;50508.59;5065792;28;20063;-64
2022/01/21 04:35:19;;;;;;;8.82;1.67;;;;;;;-149.78;100.00;50491.00;5066620;28;20105;-64
2022/01/21 04:37:53;;;;;;;13.32;1.85;;;;;;;-149.78;100.00;50491.00;5066571;28;20056;-65
2022/01/21 04:40:21;;;;;;;8.25;2.10;;;;;;;-149.78;100.00;50479.28;5066144;28;20045;-64
2022/01/21 04:48:15;;;;;;;8.68;1.50;;;;;;;-149.78;100.00;50479.28;5064383;28;20029;-65
2022/01/21 04:50:52;;;;;;;8.60;2.00;;;;;;;-149.78;100.00;50463.63;5066104;28;20090;-65
2022/01/21 04:53:18;;;;;;;7.97;1.80;;;;;;;-149.78;100.00;50491.00;5063319;28;20447;-65
2022/01/21 04:55:44;;;;;;;12.70;1.90;;;;;;;-149.78;100.00;50461.66;5066576;28;20545;-65
2022/01/21 04:58:10;;;;;;;10.57;1.73;;;;;;;-149.78;100.00;50447.97;5065875;28;20060;-64
2022/01/21 05:00:35;;;;;;;5.60;2.10;;;;;;;-149.78;100.00;50498.81;5066095;28;20041;-65
2022/01/21 05:03:01;;;;;;;5.75;2.08;;;;;;;-149.78;100.00;50475.34;5064529;28;20040;-64
2022/01/21 05:05:27;;;;;;;5.38;2.30;;;;;;;-149.78;100.00;50475.34;5064159;28;20044;-65
2022/01/21 05:07:54;;;;;;;12.45;2.10;;;;;;;-149.78;100.00;50485.13;5065350;28;20067;-65
2022/01/21 05:10:20;;;;;;;8.07;2.10;;;;;;;-149.78;100.00;50500.78;5064089;28;20040;-64
2022/01/21 05:12:45;;;;;;;9.70;3.03;;;;;;;-149.78;100.00;50479.28;5065641;28;20043;-65
2022/01/21 05:15:21;;;;;;;13.50;1.88;;;;;;;-149.78;100.00;50496.88;5048391;28;20460;-65
2022/01/21 05:17:49;;;;;;;7.70;2.58;;;;;;;-149.78;100.00;50459.72;5064663;28;20273;-65
2022/01/21 05:20:16;;;;;;;8.35;2.30;;;;;;;-149.78;100.00;50475.34;5064352;28;20037;-65
2022/01/21 05:22:41;;;;;;;8.30;2.60;;;;;;;-149.78;100.00;50455.81;5064712;28;20036;-64
2022/01/21 05:25:08;;;;;;;7.07;1.98;;;;;;;-149.78;100.00;50451.88;5066220;28;20059;-64
2022/01/21 05:27:34;;;;;;;10.13;2.53;;;;;;;-149.78;100.00;50412.78;5066458;28;20041;-65
2022/01/21 05:30:00;;;;;;;8.68;2.50;;;;;;;-149.78;100.00;50451.88;5047262;28;20119;-65
2022/01/21 05:32:26;;;;;;;15.35;2.97;;;;;;;-149.78;100.00;50487.09;5064773;28;20419;-65
2022/01/21 05:34:52;;;;;;;11.80;2.90;;;;;;;-149.78;100.00;50440.16;5063974;28;20475;-65
2022/01/21 05:37:18;;;;;;;12.50;2.75;;;;;;;-149.78;100.00;50479.28;5065671;28;20041;-65
2022/01/21 05:39:45;;;;;;;10.45;3.35;;;;;;;-149.78;100.00;50473.41;5066244;28;20040;-65
2022/01/21 05:42:11;;;;;;;10.57;3.40;;;;;;;-149.78;100.00;50447.97;5048117;28;20050;-64
2022/01/21 05:47:06;;;;;;;17.17;3.67;;;;;;;-149.78;100.00;50451.88;5065579;28;20495;-64
2022/01/21 05:49:35;;;;;;;11.98;3.55;;;;;;;-149.78;100.00;50436.25;5065465;28;20123;-65
2022/01/21 05:52:09;;;;;;;15.20;3.67;;;;;;;-149.78;100.00;50459.72;5066120;28;20024;-65
2022/01/21 05:54:35;;;;;;;11.75;3.42;;;;;;;-149.78;100.00;50467.53;5065588;28;20029;-65
2022/01/21 05:57:04;;;;;;;12.52;3.65;;;;;;;-149.78;100.00;50475.34;5065706;28;20403;-65
2022/01/21 05:59:31;;;;;;;11.57;3.70;;;;;;;-149.78;100.00;50471.44;5065130;28;20487;-65
2022/01/21 06:01:57;;;;;;;14.90;3.80;;;;;;;-149.78;100.00;50459.72;5065681;28;20039;-65
2022/01/21 06:04:23;;;;;;;8.32;3.08;;;;;;;-149.78;100.00;50473.41;5045764;28;20067;-65
2022/01/21 06:06:49;;;;;;;14.13;3.60;;;;;;;-149.78;100.00;50479.28;5064889;28;20064;-65
2022/01/21 06:09:14;;;;;;;11.02;4.22;;;;;;;-149.78;100.00;50479.28;5064969;28;20487;-65
2022/01/21 06:11:40;;;;;;;12.80;3.50;;;;;;;-149.78;100.00;50498.81;5065046;28;20043;-65
2022/01/21 06:14:05;;;;;;;15.30;3.50;;;;;;;-149.78;100.00;50491.00;5044597;28;20695;-65
2022/01/21 06:16:34;;;;;;;14.40;3.28;;;;;;;-149.78;100.00;50449.94;5063780;28;20027;-65
2022/01/21 06:19:00;;;;;;;13.23;4.35;;;;;;;-149.78;100.00;50487.09;5062409;28;20025;-65
2022/01/21 06:21:28;;;;;;;8.45;3.20;;;;;;;-149.78;100.00;50491.00;5061861;28;20032;-65
2022/01/21 06:23:53;;;;;;;7.35;2.75;;;;;;;-149.78;100.00;50475.34;5065316;28;20395;-63
2022/01/21 06:26:19;;;;;;;13.40;3.05;;;;;;;-149.78;100.00;50455.81;5065143;28;20028;-64
2022/01/21 06:28:45;;;;;;;9.52;3.03;;;;;;;-149.78;100.00;50447.97;5062096;28;20044;-64
2022/01/21 06:31:12;;;;;;;17.75;3.15;;;;;;;-149.78;100.00;50475.34;5063872;28;20029;-64
2022/01/21 06:33:38;;;;;;;13.13;3.20;;;;;;;-149.78;100.00;50475.34;5063090;28;20105;-64
2022/01/21 06:36:04;;;;;;;8.38;2.97;;;;;;;-149.78;100.00;50447.97;5063420;28;20471;-64
2022/01/21 06:38:30;;;;;;;8.15;2.90;;;;;;;-149.78;100.00;50479.28;5064029;28;20079;-64
2022/01/21 06:40:56;;;;;;;9.10;3.08;;;;;;;-149.78;100.00;50467.53;5065408;28;20043;-64
2022/01/21 06:43:22;;;;;;;21.38;2.88;;;;;;;-149.78;100.00;50475.34;5064791;28;20036;-63
2022/01/21 06:45:48;;;;;;;10.38;3.28;;;;;;;-149.78;100.00;50440.16;5063535;28;20028;-64
2022/01/21 06:48:14;;;;;;;13.82;3.65;;;;;;;-149.78;100.00;50440.16;5064180;28;20048;-64
2022/01/21 06:50:42;;;;;;;9.55;3.22;;;;;;;-149.78;100.00;50467.53;5063629;28;20075;-64
2022/01/21 06:53:08;;;;;;;11.27;3.72;;;;;;;-149.78;100.00;50471.44;5065036;28;20434;-65
2022/01/21 06:55:33;;;;;;;14.00;3.35;;;;;;;-149.78;100.00;50467.53;5063793;28;20035;-64
2022/01/21 06:57:59;;;;;;;9.30;3.40;;;;;;;-149.78;100.00;50459.72;5064153;28;20543;-64
2022/01/21 07:00:25;;;;;;;10.43;3.70;;;;;;;-149.78;100.00;50463.63;5045177;28;20827;-64
2022/01/21 07:02:52;;;;;;;8.13;3.75;;;;;;;-149.78;100.00;50467.53;5063408;28;20054;-64
2022/01/21 07:05:19;;;;;;;9.30;3.22;;;;;;;-149.78;100.00;50459.72;5061322;28;20036;-63
2022/01/21 07:07:45;;;;;;;18.02;3.17;;;;;;;-149.78;100.00;50455.81;5062693;28;20132;-63
2022/01/21 07:10:13;;;;;;;15.85;3.85;;;;;;;-149.78;100.00;50483.19;5060996;28;20150;-64
2022/01/21 07:12:40;;;;;;;10.82;3.60;;;;;;;-149.78;100.00;50479.28;5063719;28;20044;-63
2022/01/21 07:15:07;;;;;;;7.85;3.97;;;;;;;-149.78;100.00;50424.50;5060928;28;20047;-64
2022/01/21 07:17:33;;;;;;;8.70;3.58;;;;;;;-149.78;100.00;50502.75;5063535;28;20040;-64
2022/01/21 07:19:59;;;;;;;8.63;3.50;;;;;;;-149.78;100.00;50475.34;5062826;28;20501;-65
2022/01/21 07:22:25;;;;;;;9.52;3.47;;;;;;;-149.78;100.00;50465.56;5062347;28;20036;-64
2022/01/21 07:24:50;;;;;;;8.27;3.35;;;;;;;-149.78;100.00;50459.72;5064620;28;20475;-63
2022/01/21 07:27:16;;;;;;;8.27;3.58;;;;;;;-149.78;100.00;50446.03;5068019;28;20044;-64
2022/01/21 07:29:42;;;;;;;7.65;3.05;;;;;;;-149.78;100.00;50475.34;5068193;28;20195;-64
2022/01/21 07:32:08;;;;;;;11.00;3.38;;;;;;;-149.78;100.00;50492.97;5065249;28;20539;-63
2022/01/21 07:34:34;;;;;;;11.27;4.45;;;;;;;-149.78;100.00;50491.00;5065913;28;20033;-63
2022/01/21 07:37:00;;;;;;;8.40;3.75;;;;;;;-149.78;100.00;50459.72;5065149;28;20087;-64
2022/01/21 07:39:25;;;;;;;10.80;3.78;;;;;;;-149.78;100.00;50455.81;5069487;28;20040;-63
2022/01/21 07:41:51;;;;;;;7.15;3.10;;;;;;;-149.78;100.00;50463.63;5068009;28;20032;-66
2022/01/21 07:44:17;;;;;;;8.20;3.90;;;;;;;-149.78;100.00;50467.53;5065029;28;20041;-66
2022/01/21 07:46:45;;;;;;;8.55;3.58;;;;;;;-149.78;100.00;50463.63;5062717;28;20104;-65
2022/01/21 07:49:13;;;;;;;10.45;3.47;;;;;;;-149.78;100.00;50471.44;5063493;28;20048;-65
2022/01/21 07:51:40;;;;;;;16.08;3.35;;;;;;;-149.78;100.00;50489.03;5059775;28;20029;-65
2022/01/21 07:54:06;;;;;;;8.73;3.22;;;;;;;-149.78;100.00;50451.88;5058327;28;20031;-65
2022/01/21 07:56:33;;;;;;;11.93;3.80;;;;;;;-149.78;100.00;50461.66;5052986;28;20376;-65
2022/01/21 07:59:01;;;;;;;9.93;3.28;;;;;;;-149.78;100.00;50444.06;5066225;28;20024;-65
2022/01/21 08:01:27;;;;;;;8.70;3.95;;;;;;;-149.78;100.00;50498.81;5061813;28;20120;-65
2022/01/21 08:03:52;;;;;;;9.02;3.63;;;;;;;-149.78;100.00;50475.34;5061883;28;20454;-65
2022/01/21 08:06:18;;;;;;;6.85;3.38;;;;;;;-149.78;100.00;50471.44;5063002;28;20028;-65
2022/01/21 08:08:44;;;;;;;8.40;3.45;;;;;;;-149.78;100.00;50479.28;5050814;28;20029;-65
2022/01/21 08:11:09;;;;;;;7.70;3.35;;;;;;;-149.78;100.00;50508.59;5070734;28;20037;-65
2022/01/21 08:13:35;;;;;;;14.60;4.75;;;;;;;-149.78;100.00;50491.00;5069335;28;20163;-65
2022/01/21 08:16:00;;;;;;;8.55;3.95;;;;;;;-149.78;100.00;50440.16;5073985;28;20040;-65
2022/01/21 08:18:26;;;;;;;12.35;3.53;;;;;;;-149.78;100.00;50453.84;5074645;28;20052;-65
2022/01/21 08:20:52;;;;;;;8.88;3.95;;;;;;;-149.78;100.00;50404.94;5074925;28;20533;-65
2022/01/21 08:23:19;;;;;;;11.57;4.05;;;;;;;-149.78;100.00;50455.81;5074535;28;20047;-65
2022/01/21 08:25:44;;;;;;;10.05;3.85;;;;;;;-149.78;100.00;50422.56;5074379;28;20028;-65
2022/01/21 08:28:10;;;;;;;7.25;3.58;;;;;;;-149.78;100.00;50483.19;5056279;28;20040;-65
2022/01/21 08:30:36;;;;;;;17.50;6.22;;;;;;;-149.78;100.00;50447.97;5074473;28;20028;-65
2022/01/21 08:33:03;;;;;;;21.80;5.05;;;;;;;-149.78;100.00;50453.84;5073968;28;20119;-65
2022/01/21 08:35:29;;;;;;;11.35;4.07;;;;;;;-149.78;100.00;50432.31;5056317;28;20044;-65
2022/01/21 08:37:55;;;;;;;11.23;4.30;;;;;;;-149.78;100.00;50459.72;5073285;28;20028;-65
2022/01/21 08:40:22;;;;;;;16.08;4.90;;;;;;;-149.78;100.00;50444.06;5074356;28;20041;-65
2022/01/21 08:42:48;;;;;;;12.05;5.50;;;;;;;-149.78;100.00;50471.44;5059193;28;20033;-65
2022/01/21 08:45:14;;;;;;;10.98;5.05;;;;;;;-149.78;100.00;50455.81;5062742;28;20091;-65
2022/01/21 08:47:41;;;;;;;15.80;4.68;;;;;;;-149.78;100.00;50416.69;5061772;28;20060;-65
2022/01/21 08:50:17;;;;;;;15.48;5.88;;;;;;;-149.78;100.00;50473.41;5044188;28;20041;-65
2022/01/21 08:52:44;;;;;;;17.55;5.88;;;;;;;-149.78;100.00;50436.25;5061213;28;20115;-65
2022/01/21 08:55:13;;;;;;;17.67;6.70;;;;;;;-149.78;100.00;50447.97;5037522;28;20029;-66
2022/01/21 08:57:41;;;;;;;14.88;6.38;;;;;;;-149.78;100.00;50467.53;5057116;28;20137;-65
2022/01/21 09:00:15;;;;;;;13.20;6.88;;;;;;;-149.78;100.00;50467.53;5043513;28;20029;-65
2022/01/21 09:02:41;;;;;;;15.50;6.75;;;;;;;-149.78;100.00;50447.97;5055427;28;20070;-65
2022/01/21 09:05:08;;;;;;;14.70;6.72;;;;;;;-149.78;100.00;50459.72;5052304;28;20107;-65
2022/01/21 09:07:34;;;;;;;12.38;6.43;;;;;;;-149.78;100.00;50463.63;5060354;28;20028;-66
2022/01/21 09:09:59;;;;;;;16.48;6.55;;;;;;;-149.78;100.00;50479.28;5060435;28;20037;-66
2022/01/21 09:12:25;;;;;;;13.57;6.18;;;;;;;-149.78;100.00;50447.97;5058341;28;20476;-65
2022/01/21 09:14:50;;;;;;;19.13;7.22;;;;;;;-149.78;100.00;50453.84;5066863;28;20387;-66
2022/01/21 09:17:17;;;;;;;16.40;6.95;;;;;;;-149.78;100.00;50471.44;5061646;28;20442;-66
2022/01/21 09:19:43;;;;;;;14.13;6.63;;;;;;;-149.78;100.00;50447.97;5065173;28;20051;-65
2022/01/21 09:22:08;;;;;;;15.48;6.65;;;;;;;-149.78;100.00;50430.38;5054896;28;20630;-65
2022/01/21 09:24:34;;;;;;;14.25;6.55;;;;;;;-149.78;100.00;50487.09;5060823;28;20468;-65
2022/01/21 09:27:01;;;;;;;14.73;5.78;;;;;;;-149.78;100.00;50463.63;5060685;28;20033;-65
2022/01/21 09:29:27;;;;;;;14.38;6.03;;;;;;;-149.78;100.00;50479.28;5063976;28;20468;-65
2022/01/21 09:31:52;;;;;;;11.00;5.40;;;;;;;-149.78;100.00;50475.34;5066941;28;20067;-65
2022/01/21 09:34:19;;;;;;;16.95;6.30;;;;;;;-149.78;100.00;50459.72;5061306;28;20028;-65
2022/01/21 09:36:45;;;;;;;11.52;5.28;;;;;;;-149.78;100.00;50449.94;5070587;28;20508;-66
2022/01/21 09:39:12;;;;;;;11.60;5.22;;;;;;;-149.78;100.00;50424.50;5073180;28;20032;-66
2022/01/21 09:41:39;;;;;;;12.30;6.03;;;;;;;-149.78;100.00;50477.31;5070679;28;20051;-66
2022/01/21 09:44:07;;;;;;;9.23;4.45;;;;;;;-149.78;100.00;50436.25;5072064;28;20064;-65
2022/01/21 09:46:35;;;;;;;9.27;5.00;;;;;;;-149.78;100.00;50451.88;5066940;28;20023;-66
2022/01/21 09:49:25;;;;;;;9.73;4.65;;;;;;;-149.78;100.00;50428.41;5062664;28;20035;-65
2022/01/21 09:52:06;;;;;;;8.05;4.07;;;;;;;-149.78;100.00;50477.31;5066883;28;20062;-64
2022/01/21 09:54:43;;;;;;;10.27;4.40;;;;;;;-149.78;100.00;50475.34;5048403;28;20028;-65
2022/01/21 09:57:09;;;;;;;8.73;4.57;;;;;;;-149.78;100.00;50459.72;5062582;28;20028;-65
2022/01/21 09:59:37;;;;;;;8.18;3.90;;;;;;;-149.78;100.00;50432.31;5067806;28;20040;-66
2022/01/21 10:02:08;;;;;;;9.95;3.75;;;;;;;-149.78;100.00;50451.88;5058408;28;20040;-66
2022/01/21 10:04:42;;;;;;;6.65;3.53;;;;;;;-149.78;100.00;50444.06;5050474;28;20028;-66
2022/01/21 10:07:14;;;;;;;6.35;3.47;;;;;;;-149.78;100.00;50412.78;5044697;28;20028;-66
2022/01/21 10:09:39;;;;;;;6.63;3.72;;;;;;;-149.78;100.00;50471.44;5061368;28;20478;-66
2022/01/21 10:12:05;;;;;;;6.38;3.40;;;;;;;-149.78;100.00;50434.28;5062419;28;20093;-66
2022/01/21 10:14:31;;;;;;;10.30;3.60;;;;;;;-149.78;100.00;50447.97;5057444;28;20044;-66
2022/01/21 10:17:00;;;;;;;7.82;3.05;;;;;;;-149.78;100.00;50408.84;5072331;28;20360;-66
2022/01/21 10:19:28;;;;;;;6.88;3.72;;;;;;;-149.78;100.00;50455.81;5068507;28;20035;-66
2022/01/21 10:22:00;;;;;;;6.75;3.55;;;;;;;-149.78;100.00;50479.28;5057457;28;20057;-66
2022/01/21 10:24:26;;;;;;;7.97;3.28;;;;;;;-149.78;100.00;50432.31;5060530;28;20430;-66
2022/01/21 10:26:54;;;;;;;4.70;2.63;;;;;;;-149.78;100.00;50428.41;5057887;28;20111;-66
2022/01/21 10:29:21;;;;;;;6.55;2.75;;;;;;;-149.78;100.00;50434.28;5060667;28;20063;-66
2022/01/21 10:31:59;;;;;;;4.13;2.42;;;;;;;-149.78;100.00;50447.97;5059556;28;20377;-66
2022/01/21 10:34:28;;;;;;;3.22;2.03;;;;;;;-149.78;100.00;50440.16;5058799;28;20067;-66
2022/01/21 10:36:58;;;;;;;3.80;2.08;;;;;;;-149.78;100.00;50426.47;5055318;28;20021;-66
2022/01/21 10:39:31;;;;;;;4.72;2.47;;;;;;;-149.78;100.00;50430.38;5056518;28;20036;-66
2022/01/21 10:42:00;;;;;;;4.60;2.17;;;;;;;-149.78;100.00;50432.31;5057686;28;20047;-66
2022/01/21 10:44:30;;;;;;;6.40;2.00;;;;;;;-149.78;100.00;50422.56;5053832;28;20033;-66
2022/01/21 10:47:09;;;;;;;3.35;2.05;;;;;;;-149.78;100.00;50416.69;5055731;28;20477;-66
2022/01/21 10:49:39;;;;;;;3.42;2.03;;;;;;;-149.78;100.00;50447.97;5053567;28;20032;-66
2022/01/21 10:52:06;;;;;;;3.00;1.90;;;;;;;-149.78;100.00;50408.84;5055995;28;20032;-65
2022/01/21 10:54:32;;;;;;;7.07;3.20;;;;;;;-149.78;100.00;50424.50;5040909;28;20048;-65
2022/01/21 10:57:16;;;;;;;3.50;2.08;;;;;;;-149.78;100.00;50418.63;5060607;28;20388;-65
2022/01/21 10:59:51;;;;;;;2.38;1.67;;;;;;;-149.78;100.00;50440.16;5063016;28;20032;-65
2022/01/21 11:02:33;;;;;;;3.97;2.00;;;;;;;-149.78;100.00;50463.63;5075342;28;20024;-67
2022/01/21 11:05:01;;;;;;;2.85;1.60;;;;;;;-149.78;100.00;50447.97;5057126;28;20039;-64
2022/01/21 11:08:11;;;;;;;3.08;1.80;;;;;;;-149.78;100.00;50424.50;5065435;28;20032;-64
2022/01/21 11:10:50;;;;;;;4.20;1.88;;;;;;;-149.78;100.00;50467.53;5061734;28;21568;-65
2022/01/21 11:13:18;;;;;;;3.33;1.80;;;;;;;-149.78;100.00;50459.72;5064503;28;20048;-65
2022/01/21 11:15:48;;;;;;;2.90;1.90;;;;;;;-149.78;100.00;50420.59;5069490;28;20117;-65
2022/01/21 11:18:17;;;;;;;6.22;2.10;;;;;;;-149.78;100.00;50436.25;5060502;28;20119;-65
2022/01/21 11:20:48;;;;;;;3.85;1.80;;;;;;;-149.78;100.00;50424.50;5063960;28;20381;-65
2022/01/21 11:23:15;;;;;;;4.72;2.13;;;;;;;-149.78;100.00;50420.59;5059749;28;20025;-65
2022/01/21 11:25:50;;;;;;;3.80;2.10;;;;;;;-149.78;100.00;50399.09;5050930;28;20039;-65
2022/01/21 11:28:19;;;;;;;2.47;1.80;;;;;;;-149.78;100.00;50408.84;5068230;28;20388;-64
2022/01/21 11:30:45;;;;;;;3.30;2.28;;;;;;;-149.78;100.00;50457.75;5039899;28;20106;-62
2022/01/21 11:33:10;;;;;;;3.97;2.00;;;;;;;-149.78;100.00;50453.84;5061913;28;20056;-64
2022/01/21 11:35:36;;;;;;;5.07;1.75;;;;;;;-149.78;100.00;50424.50;5059154;28;20036;-64
2022/01/21 11:38:08;;;;;;;3.92;2.00;;;;;;;-149.78;100.00;50416.69;5052346;28;20095;-64
2022/01/21 11:40:35;;;;;;;2.88;1.92;;;;;;;-149.78;100.00;50449.94;5065013;28;20033;-64
2022/01/21 11:43:03;;;;;;;4.53;2.10;;;;;;;-149.78;100.00;50412.78;5063758;28;20047;-65
2022/01/21 11:50:31;;;;;;;5.15;1.70;;;;;;;-149.78;100.00;50453.84;5056665;28;20029;-64
2022/01/21 11:52:57;;;;;;;6.75;2.65;;;;;;;-149.78;100.00;50414.72;5061513;28;20041;-64
2022/01/21 11:55:37;;;;;;;5.32;2.20;;;;;;;-149.78;100.00;50420.59;5053790;28;20122;-64
2022/01/21 11:58:16;;;;;;;6.53;2.65;;;;;;;-149.78;100.00;50436.25;5056594;28;20029;-64
2022/01/21 12:00:44;;;;;;;5.57;2.47;;;;;;;-149.78;100.00;50393.22;5040819;28;20063;-64